Time;durP1;ratioP1;P1;durP2;ratioP2;P2;SDS_P1;SDS_P2;PMS_P1;PMS_P2;Temp;Humidity;BMP_temperature;BMP_pressure;BME280_temperature;BME280_humidity;BME280_pressure;Samples;Min_cycle;Max_cycle;Signal;HPM_P1;HPM_P2
2022/03/08 00:00:28;;;;;;;38.15;21.08;;;;;;;;;;4898785;29;20107;-72
2022/03/08 00:02:57;;;;;;;32.72;20.90;;;;;;;;;;4897582;29;20441;-71
2022/03/08 00:05:24;;;;;;;30.02;19.83;;;;;;;;;;4898750;29;20057;-71
2022/03/08 00:07:51;;;;;;;28.13;19.23;;;;;;;;;;4898678;29;20109;-72
2022/03/08 00:10:19;;;;;;;30.25;19.60;;;;;;;;;;4898617;29;20104;-71
2022/03/08 00:12:46;;;;;;;31.80;20.92;;;;;;;;;;4898793;29;20096;-71
2022/03/08 00:15:16;;;;;;;31.38;19.13;;;;;;;;;;4898396;29;20059;-71
2022/03/08 00:17:43;;;;;;;28.17;19.35;;;;;;;;;;4898546;29;20108;-71
2022/03/08 00:20:11;;;;;;;32.30;20.25;;;;;;;;;;4898479;29;20104;-71
2022/03/08 00:22:39;;;;;;;32.60;20.77;;;;;;;;;;4898327;29;20045;-72
2022/03/08 00:25:06;;;;;;;31.02;19.77;;;;;;;;;;4897139;29;20061;-71
2022/03/08 00:27:33;;;;;;;31.27;19.73;;;;;;;;;;4898211;29;20092;-72
2022/03/08 00:30:00;;;;;;;32.88;18.85;;;;;;;;;;4897982;29;20048;-71
2022/03/08 00:32:27;;;;;;;29.98;19.58;;;;;;;;;;4898223;29;20044;-71
2022/03/08 00:34:53;;;;;;;29.15;19.45;;;;;;;;;;4897972;29;20061;-72
2022/03/08 00:37:20;;;;;;;29.73;18.35;;;;;;;;;;4898618;29;20057;-72
2022/03/08 00:39:46;;;;;;;33.47;19.70;;;;;;;;;;4898050;29;20093;-71
2022/03/08 00:42:13;;;;;;;28.40;19.40;;;;;;;;;;4898157;29;20056;-71
2022/03/08 00:44:40;;;;;;;28.20;18.30;;;;;;;;;;4898186;29;20056;-71
2022/03/08 00:47:07;;;;;;;29.15;17.83;;;;;;;;;;4898031;29;20067;-71
2022/03/08 00:49:34;;;;;;;29.08;19.25;;;;;;;;;;4897580;29;20108;-72
2022/03/08 00:52:01;;;;;;;26.45;17.52;;;;;;;;;;4898024;29;20056;-71
2022/03/08 00:54:28;;;;;;;26.10;17.30;;;;;;;;;;4897864;29;20500;-71
2022/03/08 00:56:54;;;;;;;27.08;18.15;;;;;;;;;;4881203;29;20052;-72
2022/03/08 00:59:21;;;;;;;29.33;18.50;;;;;;;;;;4897653;29;20112;-72
2022/03/08 01:01:48;;;;;;;28.70;17.17;;;;;;;;;;4898044;29;20461;-72
2022/03/08 01:04:15;;;;;;;27.30;18.10;;;;;;;;;;4897590;29;20478;-71
2022/03/08 01:06:42;;;;;;;26.60;17.67;;;;;;;;;;4897802;29;20056;-71
2022/03/08 01:09:09;;;;;;;25.23;17.58;;;;;;;;;;4896584;29;20049;-71
2022/03/08 01:11:36;;;;;;;27.23;17.52;;;;;;;;;;4897417;29;20056;-71
2022/03/08 01:14:04;;;;;;;28.40;17.50;;;;;;;;;;4897152;29;20119;-71
2022/03/08 01:16:30;;;;;;;28.80;17.92;;;;;;;;;;4897403;29;20056;-71
2022/03/08 01:18:57;;;;;;;26.15;16.55;;;;;;;;;;4897381;29;20071;-71
2022/03/08 01:21:24;;;;;;;25.20;16.92;;;;;;;;;;4897511;29;20111;-71
2022/03/08 01:23:50;;;;;;;26.65;16.58;;;;;;;;;;4897538;29;20067;-71
2022/03/08 01:26:17;;;;;;;27.08;16.15;;;;;;;;;;4897212;29;20052;-72
2022/03/08 01:28:43;;;;;;;25.67;16.42;;;;;;;;;;4897235;29;20567;-71
2022/03/08 01:31:10;;;;;;;24.45;16.08;;;;;;;;;;4896905;29;20053;-71
2022/03/08 01:33:37;;;;;;;24.95;16.65;;;;;;;;;;4897131;29;20104;-71
2022/03/08 01:36:04;;;;;;;28.60;16.75;;;;;;;;;;4897510;29;20056;-71
2022/03/08 01:38:30;;;;;;;24.85;15.75;;;;;;;;;;4897086;29;20052;-72
2022/03/08 01:40:57;;;;;;;27.08;16.85;;;;;;;;;;4895729;29;20052;-72
2022/03/08 01:43:24;;;;;;;25.23;16.45;;;;;;;;;;4896875;29;20053;-72
2022/03/08 01:45:50;;;;;;;24.48;15.43;;;;;;;;;;4896805;29;20096;-71
2022/03/08 01:48:17;;;;;;;24.63;15.70;;;;;;;;;;4897214;29;20472;-72
2022/03/08 01:50:44;;;;;;;25.30;15.70;;;;;;;;;;4896995;29;20119;-72
2022/03/08 01:53:10;;;;;;;23.15;15.95;;;;;;;;;;4896973;29;20048;-71
2022/03/08 01:55:37;;;;;;;24.75;15.27;;;;;;;;;;4892462;29;20060;-71
2022/03/08 01:58:03;;;;;;;20.65;14.30;;;;;;;;;;4878113;29;20060;-71
2022/03/08 02:00:31;;;;;;;21.90;15.07;;;;;;;;;;4878021;29;20085;-71
2022/03/08 02:02:59;;;;;;;24.75;15.75;;;;;;;;;;4877996;29;20390;-71
2022/03/08 02:05:26;;;;;;;22.17;14.38;;;;;;;;;;4878168;29;20105;-71
2022/03/08 02:07:53;;;;;;;24.33;14.90;;;;;;;;;;4878144;29;20057;-71
2022/03/08 02:10:20;;;;;;;22.42;14.85;;;;;;;;;;4877960;29;20427;-71
2022/03/08 02:12:46;;;;;;;22.08;14.63;;;;;;;;;;4877984;29;20049;-71
2022/03/08 02:15:23;;;;;;;23.02;15.20;;;;;;;;;;4877811;29;20493;-71
2022/03/08 02:17:50;;;;;;;25.13;15.25;;;;;;;;;;4878075;29;20053;-71
2022/03/08 02:20:18;;;;;;;21.20;14.50;;;;;;;;;;4877752;29;20493;-71
2022/03/08 02:22:46;;;;;;;25.52;16.10;;;;;;;;;;4876769;29;20105;-71
2022/03/08 02:25:13;;;;;;;28.63;16.17;;;;;;;;;;4877652;29;20057;-71
2022/03/08 02:27:42;;;;;;;25.73;15.80;;;;;;;;;;4880562;29;20057;-71
2022/03/08 02:30:11;;;;;;;23.92;15.88;;;;;;;;;;4881368;29;20097;-71
2022/03/08 02:32:38;;;;;;;22.58;14.82;;;;;;;;;;4881685;29;20097;-71
2022/03/08 02:35:26;;;;;;;27.08;16.73;;;;;;;;;;4883252;29;20061;-71
2022/03/08 02:37:55;;;;;;;28.02;17.20;;;;;;;;;;4881720;29;20061;-71
2022/03/08 02:40:24;;;;;;;26.08;16.38;;;;;;;;;;4880245;29;20088;-71
2022/03/08 02:42:51;;;;;;;26.17;17.02;;;;;;;;;;4881580;29;20086;-71
2022/03/08 02:45:18;;;;;;;26.63;16.20;;;;;;;;;;4881472;29;20132;-71
2022/03/08 02:47:44;;;;;;;27.42;16.83;;;;;;;;;;4881935;29;20061;-71
2022/03/08 02:50:13;;;;;;;24.13;15.40;;;;;;;;;;4882313;29;20501;-71
2022/03/08 02:52:41;;;;;;;25.52;15.95;;;;;;;;;;4899869;29;20052;-71
2022/03/08 02:55:08;;;;;;;24.10;16.50;;;;;;;;;;4899957;29;20460;-71
2022/03/08 02:57:35;;;;;;;24.20;15.25;;;;;;;;;;4900269;29;20120;-71
2022/03/08 03:00:04;;;;;;;23.40;15.55;;;;;;;;;;4899804;29;20053;-71
2022/03/08 03:02:30;;;;;;;24.65;15.32;;;;;;;;;;4899691;29;20053;-70
2022/03/08 03:04:57;;;;;;;20.70;13.70;;;;;;;;;;4899787;29;20052;-71
2022/03/08 03:07:24;;;;;;;21.55;13.98;;;;;;;;;;4899887;29;20064;-71
2022/03/08 03:09:51;;;;;;;20.02;13.30;;;;;;;;;;4899812;29;20060;-71
2022/03/08 03:12:18;;;;;;;21.45;13.50;;;;;;;;;;4899749;29;20132;-71
2022/03/08 03:14:44;;;;;;;19.60;13.30;;;;;;;;;;4899965;29;20048;-71
2022/03/08 03:17:11;;;;;;;21.60;13.32;;;;;;;;;;4899527;29;20052;-71
2022/03/08 03:19:37;;;;;;;20.92;13.75;;;;;;;;;;4899337;29;20472;-71
2022/03/08 03:22:04;;;;;;;22.85;14.73;;;;;;;;;;4899576;29;20061;-71
2022/03/08 03:24:31;;;;;;;21.55;14.52;;;;;;;;;;4899693;29;20052;-71
2022/03/08 03:26:57;;;;;;;21.10;12.82;;;;;;;;;;4899320;29;20052;-70
2022/03/08 03:29:24;;;;;;;19.67;13.43;;;;;;;;;;4898611;29;20444;-71
2022/03/08 03:31:50;;;;;;;23.58;13.52;;;;;;;;;;4899216;29;20472;-71
2022/03/08 03:34:17;;;;;;;18.50;13.00;;;;;;;;;;4899062;29;20099;-71
2022/03/08 03:36:44;;;;;;;21.90;12.52;;;;;;;;;;4899081;29;20049;-72
2022/03/08 03:39:10;;;;;;;18.20;12.15;;;;;;;;;;4898940;29;20052;-71
2022/03/08 03:41:37;;;;;;;21.58;14.60;;;;;;;;;;4898970;29;20056;-71
2022/03/08 03:44:04;;;;;;;23.27;15.60;;;;;;;;;;4898997;29;20048;-71
2022/03/08 03:46:31;;;;;;;21.15;13.95;;;;;;;;;;4899002;29;20428;-71
2022/03/08 03:48:57;;;;;;;24.40;14.48;;;;;;;;;;4899015;29;20238;-70
2022/03/08 03:51:24;;;;;;;22.60;14.45;;;;;;;;;;4899003;29;20052;-71
2022/03/08 03:53:50;;;;;;;23.25;14.85;;;;;;;;;;4898850;29;20049;-70
2022/03/08 03:56:17;;;;;;;23.85;14.27;;;;;;;;;;4898718;29;20567;-71
2022/03/08 03:58:44;;;;;;;22.92;14.65;;;;;;;;;;4898750;29;20049;-71
2022/03/08 04:01:11;;;;;;;22.42;14.18;;;;;;;;;;4898576;29;20064;-71
2022/03/08 04:03:37;;;;;;;20.48;14.20;;;;;;;;;;4898953;29;20055;-71
2022/03/08 04:06:04;;;;;;;23.42;14.10;;;;;;;;;;4898949;29;20147;-71
2022/03/08 04:08:31;;;;;;;22.38;14.25;;;;;;;;;;4898908;29;20064;-71
2022/03/08 04:10:57;;;;;;;20.83;13.48;;;;;;;;;;4898625;29;20060;-71
2022/03/08 04:13:24;;;;;;;21.58;13.75;;;;;;;;;;4898536;29;20108;-71
2022/03/08 04:15:52;;;;;;;25.02;14.25;;;;;;;;;;4898284;29;20053;-71
2022/03/08 04:18:19;;;;;;;21.45;13.52;;;;;;;;;;4898687;29;20112;-72
2022/03/08 04:20:45;;;;;;;19.27;13.10;;;;;;;;;;4890239;29;20056;-71
2022/03/08 04:23:12;;;;;;;22.77;13.68;;;;;;;;;;4898181;29;20489;-71
2022/03/08 04:25:39;;;;;;;22.85;12.60;;;;;;;;;;4898044;29;20080;-71
2022/03/08 04:28:06;;;;;;;19.65;12.50;;;;;;;;;;4898188;29;20059;-71
2022/03/08 04:30:33;;;;;;;20.67;13.38;;;;;;;;;;4898025;29;20064;-71
2022/03/08 04:32:59;;;;;;;19.73;12.60;;;;;;;;;;4898668;29;20048;-71
2022/03/08 04:35:26;;;;;;;22.95;13.50;;;;;;;;;;4898165;29;20108;-71
2022/03/08 04:37:53;;;;;;;21.08;13.30;;;;;;;;;;4898223;29;20104;-71
2022/03/08 04:40:19;;;;;;;22.17;13.75;;;;;;;;;;4897798;29;20056;-71
2022/03/08 04:42:46;;;;;;;22.20;13.02;;;;;;;;;;4897937;29;20461;-71
2022/03/08 04:45:13;;;;;;;20.10;12.18;;;;;;;;;;4897964;29;20060;-71
2022/03/08 04:47:43;;;;;;;20.95;13.77;;;;;;;;;;4899153;29;20112;-71
2022/03/08 04:50:14;;;;;;;19.63;12.65;;;;;;;;;;4901943;29;20052;-70
2022/03/08 04:52:41;;;;;;;20.42;13.70;;;;;;;;;;4902129;29;20056;-71
2022/03/08 04:55:13;;;;;;;16.98;11.75;;;;;;;;;;4901409;29;20485;-71
2022/03/08 04:57:46;;;;;;;22.02;13.02;;;;;;;;;;4901716;29;20105;-72
2022/03/08 05:00:18;;;;;;;19.40;13.05;;;;;;;;;;4901782;29;20523;-71
2022/03/08 05:02:46;;;;;;;19.33;12.63;;;;;;;;;;4904413;29;20063;-71
2022/03/08 05:05:14;;;;;;;22.27;12.80;;;;;;;;;;4903154;29;20059;-72
2022/03/08 05:07:41;;;;;;;22.88;12.30;;;;;;;;;;4887169;29;20530;-71
2022/03/08 05:10:10;;;;;;;21.77;13.38;;;;;;;;;;4905318;29;20108;-71
2022/03/08 05:12:46;;;;;;;19.15;12.52;;;;;;;;;;4902916;29;20500;-71
2022/03/08 05:15:14;;;;;;;22.17;11.85;;;;;;;;;;4905187;29;20044;-71
2022/03/08 05:17:42;;;;;;;17.58;11.48;;;;;;;;;;4904719;29;20052;-70
2022/03/08 05:20:10;;;;;;;19.08;12.90;;;;;;;;;;4903877;29;20428;-70
2022/03/08 05:22:40;;;;;;;20.83;12.27;;;;;;;;;;4904572;29;20424;-71
2022/03/08 05:25:09;;;;;;;19.33;12.02;;;;;;;;;;4888060;29;20053;-71
2022/03/08 05:27:49;;;;;;;25.98;13.57;;;;;;;;;;4902678;29;20139;-69
2022/03/08 05:30:16;;;;;;;20.48;13.10;;;;;;;;;;4903735;29;20330;-69
2022/03/08 05:32:46;;;;;;;18.00;11.23;;;;;;;;;;4904661;29;20416;-70
2022/03/08 05:35:16;;;;;;;17.35;12.02;;;;;;;;;;4902673;29;20052;-70
2022/03/08 05:37:47;;;;;;;17.42;11.75;;;;;;;;;;4905185;29;20060;-70
2022/03/08 05:40:18;;;;;;;17.55;11.70;;;;;;;;;;4903599;29;20052;-70
2022/03/08 05:42:45;;;;;;;18.23;11.25;;;;;;;;;;4901923;29;20056;-69
2022/03/08 05:45:16;;;;;;;17.75;11.82;;;;;;;;;;4902632;29;20068;-69
2022/03/08 05:47:43;;;;;;;18.85;11.73;;;;;;;;;;4906568;29;20052;-70
2022/03/08 05:50:11;;;;;;;16.80;10.98;;;;;;;;;;4897093;29;20135;-70
2022/03/08 05:52:38;;;;;;;18.92;11.27;;;;;;;;;;4897207;29;20088;-70
2022/03/08 05:55:05;;;;;;;17.70;11.93;;;;;;;;;;4897216;29;20044;-70
2022/03/08 05:57:32;;;;;;;23.25;12.80;;;;;;;;;;4896850;29;20129;-70
2022/03/08 05:59:58;;;;;;;21.25;12.50;;;;;;;;;;4895796;29;20052;-70
2022/03/08 06:02:25;;;;;;;20.60;12.82;;;;;;;;;;4897016;29;20056;-69
2022/03/08 06:04:52;;;;;;;24.08;12.95;;;;;;;;;;4897186;29;20097;-69
2022/03/08 06:07:21;;;;;;;23.55;14.02;;;;;;;;;;4896747;29;20052;-69
2022/03/08 06:09:49;;;;;;;23.27;14.82;;;;;;;;;;4896669;29;20075;-71
2022/03/08 06:12:16;;;;;;;21.33;14.27;;;;;;;;;;4896649;29;20060;-70
2022/03/08 06:14:43;;;;;;;26.00;16.10;;;;;;;;;;4896825;29;20053;-70
2022/03/08 06:17:09;;;;;;;21.15;14.65;;;;;;;;;;4896730;29;20064;-70
2022/03/08 06:19:37;;;;;;;25.20;14.88;;;;;;;;;;4896741;29;20496;-71
2022/03/08 06:22:04;;;;;;;23.30;15.95;;;;;;;;;;4895654;29;20077;-70
2022/03/08 06:24:31;;;;;;;22.48;14.77;;;;;;;;;;4892057;29;20045;-70
2022/03/08 06:26:58;;;;;;;27.30;15.07;;;;;;;;;;4877984;29;20659;-70
2022/03/08 06:29:24;;;;;;;21.20;13.55;;;;;;;;;;4877731;29;20416;-70
2022/03/08 06:31:51;;;;;;;25.83;15.25;;;;;;;;;;4877940;29;20566;-70
2022/03/08 06:34:18;;;;;;;20.55;14.48;;;;;;;;;;4890163;29;20069;-70
2022/03/08 06:36:45;;;;;;;23.75;14.48;;;;;;;;;;4896363;29;20504;-71
2022/03/08 06:39:12;;;;;;;20.63;13.50;;;;;;;;;;4896618;29;20052;-70
2022/03/08 06:41:42;;;;;;;21.65;14.38;;;;;;;;;;4896469;29;20056;-70
2022/03/08 06:44:09;;;;;;;18.38;12.70;;;;;;;;;;4896496;29;20101;-70
2022/03/08 06:46:37;;;;;;;18.02;11.02;;;;;;;;;;4895561;29;20056;-70
2022/03/08 06:49:03;;;;;;;18.83;11.50;;;;;;;;;;4896623;29;20048;-70
2022/03/08 06:51:30;;;;;;;17.92;11.65;;;;;;;;;;4896369;29;20116;-70
2022/03/08 06:53:57;;;;;;;16.30;10.30;;;;;;;;;;4896332;29;20108;-69
2022/03/08 06:56:23;;;;;;;18.50;11.65;;;;;;;;;;4895185;29;20052;-69
2022/03/08 06:58:50;;;;;;;17.23;11.50;;;;;;;;;;4896708;29;20053;-70
2022/03/08 07:01:17;;;;;;;14.88;10.65;;;;;;;;;;4896278;29;20057;-70
2022/03/08 07:03:43;;;;;;;17.33;10.20;;;;;;;;;;4896272;29;20052;-69
2022/03/08 07:06:10;;;;;;;13.40;9.73;;;;;;;;;;4896578;29;20105;-70
2022/03/08 07:08:37;;;;;;;17.50;11.05;;;;;;;;;;4895198;29;20123;-70
2022/03/08 07:11:04;;;;;;;15.18;10.13;;;;;;;;;;4896277;29;20497;-70
2022/03/08 07:13:32;;;;;;;16.33;10.35;;;;;;;;;;4898748;29;20056;-70
2022/03/08 07:15:59;;;;;;;16.85;11.73;;;;;;;;;;4899828;29;20057;-70
2022/03/08 07:18:26;;;;;;;14.27;10.40;;;;;;;;;;4899793;29;20131;-70
2022/03/08 07:20:52;;;;;;;14.77;10.52;;;;;;;;;;4899305;29;20057;-70
2022/03/08 07:23:21;;;;;;;16.23;11.57;;;;;;;;;;4899530;29;20052;-71
2022/03/08 07:25:47;;;;;;;13.07;9.20;;;;;;;;;;4899543;29;20049;-71
2022/03/08 07:28:14;;;;;;;14.52;10.35;;;;;;;;;;4899822;29;20056;-71
2022/03/08 07:30:57;;;;;;;13.32;9.43;;;;;;;;;;4899486;29;20052;-71
2022/03/08 07:33:25;;;;;;;18.02;9.07;;;;;;;;;;4899388;29;20049;-71
2022/03/08 07:35:52;;;;;;;15.45;10.00;;;;;;;;;;4899131;29;20454;-73
2022/03/08 07:38:19;;;;;;;14.82;8.95;;;;;;;;;;4899699;29;20415;-70
2022/03/08 07:40:45;;;;;;;12.82;7.93;;;;;;;;;;4899619;29;20088;-70
2022/03/08 07:43:12;;;;;;;14.77;8.18;;;;;;;;;;4897459;29;20132;-71
2022/03/08 07:45:38;;;;;;;13.32;9.43;;;;;;;;;;4896963;29;20100;-71
2022/03/08 07:48:05;;;;;;;15.60;8.65;;;;;;;;;;4897644;29;20056;-71
2022/03/08 07:50:33;;;;;;;11.02;8.23;;;;;;;;;;4896444;29;20056;-72
2022/03/08 07:53:00;;;;;;;13.52;8.75;;;;;;;;;;4896475;29;20052;-72
2022/03/08 07:55:29;;;;;;;11.07;8.23;;;;;;;;;;4896967;29;20052;-72
2022/03/08 07:57:59;;;;;;;12.75;8.15;;;;;;;;;;4896866;29;20493;-70
2022/03/08 08:00:29;;;;;;;12.55;8.55;;;;;;;;;;4896911;29;20060;-71
2022/03/08 08:02:56;;;;;;;12.00;8.38;;;;;;;;;;4896810;29;20139;-72
2022/03/08 08:05:23;;;;;;;13.20;7.45;;;;;;;;;;4896628;29;20596;-71
2022/03/08 08:07:49;;;;;;;13.77;8.68;;;;;;;;;;4896859;29;20060;-69
2022/03/08 08:10:16;;;;;;;13.82;7.78;;;;;;;;;;4895958;29;20508;-69
2022/03/08 08:12:43;;;;;;;10.32;7.93;;;;;;;;;;4896758;29;20061;-69
2022/03/08 08:15:09;;;;;;;12.85;8.50;;;;;;;;;;4895350;29;20077;-69
2022/03/08 08:17:36;;;;;;;12.57;7.90;;;;;;;;;;4896307;29;20052;-69
2022/03/08 08:20:04;;;;;;;11.15;7.47;;;;;;;;;;4896404;29;20057;-70
2022/03/08 08:22:30;;;;;;;14.75;7.45;;;;;;;;;;4895107;29;20508;-69
2022/03/08 08:24:57;;;;;;;10.45;8.20;;;;;;;;;;4895667;29;20053;-70
2022/03/08 08:27:23;;;;;;;11.80;7.50;;;;;;;;;;4896446;29;20052;-70
2022/03/08 08:29:50;;;;;;;11.13;7.90;;;;;;;;;;4896336;29;20183;-69
2022/03/08 08:32:17;;;;;;;11.10;7.47;;;;;;;;;;4896308;29;20056;-70
2022/03/08 08:34:43;;;;;;;11.77;7.72;;;;;;;;;;4895651;29;20056;-70
2022/03/08 08:37:11;;;;;;;10.20;7.55;;;;;;;;;;4895758;29;20053;-70
2022/03/08 08:39:38;;;;;;;10.30;7.18;;;;;;;;;;4896509;29;20056;-71
2022/03/08 08:42:05;;;;;;;14.25;8.75;;;;;;;;;;4896206;29;20057;-70
2022/03/08 08:44:36;;;;;;;14.60;7.90;;;;;;;;;;4895851;29;20489;-69
2022/03/08 08:47:03;;;;;;;11.05;7.65;;;;;;;;;;4896051;29;20053;-69
2022/03/08 08:49:29;;;;;;;11.15;7.47;;;;;;;;;;4894151;29;20588;-70
2022/03/08 08:52:02;;;;;;;13.18;8.43;;;;;;;;;;4895999;29;20124;-69
2022/03/08 08:54:28;;;;;;;11.40;7.70;;;;;;;;;;4896043;29;20056;-70
2022/03/08 08:56:55;;;;;;;10.13;7.53;;;;;;;;;;4895397;29;20413;-70
2022/03/08 08:59:22;;;;;;;8.30;6.50;;;;;;;;;;4895715;29;20124;-68
2022/03/08 09:01:49;;;;;;;12.98;7.53;;;;;;;;;;4883902;29;20052;-69
2022/03/08 09:04:16;;;;;;;11.35;7.95;;;;;;;;;;4882884;29;20053;-66
2022/03/08 09:06:42;;;;;;;9.93;7.32;;;;;;;;;;4885257;29;20053;-71
2022/03/08 09:09:09;;;;;;;10.57;7.03;;;;;;;;;;4885630;29;20048;-71
2022/03/08 09:11:37;;;;;;;9.30;6.63;;;;;;;;;;4883117;29;20063;-71
2022/03/08 09:14:04;;;;;;;10.80;6.32;;;;;;;;;;4886402;29;20048;-71
2022/03/08 09:16:31;;;;;;;10.52;6.85;;;;;;;;;;4888312;29;20060;-71
2022/03/08 09:18:57;;;;;;;7.57;5.72;;;;;;;;;;4885231;29;20052;-71
2022/03/08 09:21:24;;;;;;;7.15;5.88;;;;;;;;;;4888049;29;20052;-71
2022/03/08 09:23:50;;;;;;;7.85;6.20;;;;;;;;;;4890752;29;20552;-72
2022/03/08 09:26:17;;;;;;;8.88;5.65;;;;;;;;;;4888501;29;20085;-68
2022/03/08 09:28:44;;;;;;;12.02;6.68;;;;;;;;;;4890342;29;20064;-69
2022/03/08 09:31:10;;;;;;;7.03;5.00;;;;;;;;;;4888104;29;20052;-68
2022/03/08 09:33:37;;;;;;;6.53;5.13;;;;;;;;;;4886690;29;20552;-68
2022/03/08 09:36:04;;;;;;;9.80;5.15;;;;;;;;;;4882442;29;20555;-69
2022/03/08 09:38:31;;;;;;;6.22;5.05;;;;;;;;;;4883177;29;20589;-69
2022/03/08 09:40:57;;;;;;;5.35;4.63;;;;;;;;;;4885151;29;20120;-69
2022/03/08 09:43:24;;;;;;;8.50;5.22;;;;;;;;;;4893364;29;20052;-67
2022/03/08 09:45:51;;;;;;;12.13;4.90;;;;;;;;;;4890489;29;20131;-67
2022/03/08 09:48:18;;;;;;;10.43;5.53;;;;;;;;;;4885545;29;20108;-67
2022/03/08 09:50:45;;;;;;;7.07;4.68;;;;;;;;;;4882863;29;20135;-70
2022/03/08 09:53:12;;;;;;;5.53;4.57;;;;;;;;;;4896913;29;20048;-71
2022/03/08 09:55:39;;;;;;;7.13;5.10;;;;;;;;;;4882414;29;20048;-69
2022/03/08 09:58:05;;;;;;;5.90;4.88;;;;;;;;;;4886053;29;20071;-68
2022/03/08 10:00:32;;;;;;;4.90;4.40;;;;;;;;;;4882809;29;20116;-67
2022/03/08 10:03:00;;;;;;;6.38;5.38;;;;;;;;;;4882822;29;20128;-68
2022/03/08 10:05:40;;;;;;;7.38;4.72;;;;;;;;;;4885550;29;20128;-68
2022/03/08 10:08:18;;;;;;;8.30;4.57;;;;;;;;;;4884315;29;20420;-68
2022/03/08 10:11:05;;;;;;;6.47;4.68;;;;;;;;;;4883409;29;20052;-67
2022/03/08 10:13:53;;;;;;;7.82;4.65;;;;;;;;;;4880985;29;20412;-68
2022/03/08 10:16:26;;;;;;;5.43;3.75;;;;;;;;;;4880195;29;20053;-73
2022/03/08 10:18:58;;;;;;;5.07;3.83;;;;;;;;;;4890348;29;20056;-67
2022/03/08 10:21:27;;;;;;;7.65;4.40;;;;;;;;;;4881967;29;20052;-69
2022/03/08 10:23:54;;;;;;;5.18;3.75;;;;;;;;;;4881289;29;20786;-69
2022/03/08 10:26:21;;;;;;;6.10;4.53;;;;;;;;;;4892004;29;20053;-68
2022/03/08 10:28:50;;;;;;;4.63;3.83;;;;;;;;;;4882795;29;20465;-67
2022/03/08 10:31:17;;;;;;;6.90;4.68;;;;;;;;;;4882906;29;20057;-67
2022/03/08 10:33:45;;;;;;;4.95;3.78;;;;;;;;;;4880051;29;20466;-68
2022/03/08 10:36:18;;;;;;;8.75;4.15;;;;;;;;;;4882640;29;20053;-69
2022/03/08 10:39:04;;;;;;;6.47;3.90;;;;;;;;;;4884927;29;20109;-68
2022/03/08 10:41:31;;;;;;;6.90;4.57;;;;;;;;;;4884683;29;20049;-70
2022/03/08 10:43:58;;;;;;;6.32;3.53;;;;;;;;;;4882496;29;20045;-66
2022/03/08 10:46:26;;;;;;;6.72;4.05;;;;;;;;;;4882413;29;20462;-69
2022/03/08 10:48:54;;;;;;;5.68;3.60;;;;;;;;;;4887418;29;20044;-70
2022/03/08 10:51:21;;;;;;;6.30;3.85;;;;;;;;;;4887147;29;20577;-65
2022/03/08 10:53:48;;;;;;;5.80;4.00;;;;;;;;;;4887472;29;20053;-65
2022/03/08 10:56:23;;;;;;;5.53;3.50;;;;;;;;;;4873395;29;20045;-66
2022/03/08 10:58:51;;;;;;;4.60;3.30;;;;;;;;;;4891600;29;20052;-67
2022/03/08 11:01:18;;;;;;;5.32;3.72;;;;;;;;;;4886865;29;20049;-65
2022/03/08 11:03:57;;;;;;;6.43;3.90;;;;;;;;;;4888082;29;20128;-72
2022/03/08 11:06:25;;;;;;;6.32;3.42;;;;;;;;;;4890264;29;20092;-70
2022/03/08 11:08:52;;;;;;;4.03;3.35;;;;;;;;;;4886299;29;20501;-70
2022/03/08 11:11:20;;;;;;;8.13;3.55;;;;;;;;;;4888915;29;20116;-69
2022/03/08 11:13:50;;;;;;;6.35;4.07;;;;;;;;;;4887461;29;20132;-70
2022/03/08 11:16:21;;;;;;;7.50;3.97;;;;;;;;;;4884744;29;20084;-70
2022/03/08 11:18:49;;;;;;;4.40;3.42;;;;;;;;;;4891956;29;20044;-69
2022/03/08 11:21:17;;;;;;;7.43;3.55;;;;;;;;;;4885669;29;20480;-71
2022/03/08 11:23:44;;;;;;;4.07;3.45;;;;;;;;;;4887204;29;20104;-73
2022/03/08 11:26:14;;;;;;;5.25;3.42;;;;;;;;;;4871627;29;20074;-71
2022/03/08 11:28:47;;;;;;;6.65;3.70;;;;;;;;;;4886028;29;20435;-72
2022/03/08 11:31:20;;;;;;;7.18;3.55;;;;;;;;;;4904875;29;20512;-67
2022/03/08 11:33:59;;;;;;;4.90;3.50;;;;;;;;;;4887744;29;20508;-68
2022/03/08 11:36:42;;;;;;;4.13;3.60;;;;;;;;;;4900435;29;20056;-71
2022/03/08 11:39:14;;;;;;;5.30;3.63;;;;;;;;;;4902458;29;20496;-71
2022/03/08 11:41:42;;;;;;;5.20;3.60;;;;;;;;;;4885504;29;20064;-71
2022/03/08 11:44:26;;;;;;;5.05;3.55;;;;;;;;;;4893032;29;20032;-69
2022/03/08 11:47:02;;;;;;;4.03;3.15;;;;;;;;;;4887726;29;20453;-73
2022/03/08 11:50:36;;;;;;;4.07;3.10;;;;;;;;;;4885935;29;20064;-73
2022/03/08 11:53:06;;;;;;;;;;;;;;;;;;4871877;29;20053;-71
2022/03/08 11:55:48;;;;;;;5.75;3.80;;;;;;;;;;4876314;29;19988;-72
2022/03/08 11:58:16;;;;;;;5.88;3.80;;;;;;;;;;4884692;29;20055;-72
2022/03/08 12:00:45;;;;;;;4.70;3.63;;;;;;;;;;4886730;29;20068;-69
2022/03/08 12:03:24;;;;;;;8.40;5.22;;;;;;;;;;4889021;29;20076;-70
2022/03/08 12:06:06;;;;;;;4.40;3.60;;;;;;;;;;4887025;29;20428;-71
2022/03/08 12:08:39;;;;;;;5.22;4.03;;;;;;;;;;4887321;29;20053;-70
2022/03/08 12:11:13;;;;;;;4.60;3.60;;;;;;;;;;4886475;29;20049;-72
2022/03/08 12:13:42;;;;;;;5.53;3.55;;;;;;;;;;4902312;29;20052;-71
2022/03/08 12:16:09;;;;;;;6.07;3.72;;;;;;;;;;4885235;29;20394;-69
2022/03/08 12:18:35;;;;;;;8.82;3.47;;;;;;;;;;4888787;29;20084;-72
2022/03/08 12:21:15;;;;;;;5.32;3.47;;;;;;;;;;4884097;29;20501;-73
2022/03/08 12:23:55;;;;;;;5.25;3.33;;;;;;;;;;4887785;29;20393;-73
2022/03/08 12:26:22;;;;;;;4.88;3.97;;;;;;;;;;4886145;29;20056;-71
2022/03/08 12:29:21;;;;;;;6.57;4.22;;;;;;;;;;4884953;29;20049;-70
2022/03/08 12:31:57;;;;;;;6.20;3.92;;;;;;;;;;4886618;29;20064;-72
2022/03/08 12:34:33;;;;;;;5.05;3.85;;;;;;;;;;4889992;29;20492;-69
2022/03/08 12:37:37;;;;;;;5.68;3.85;;;;;;;;;;4887416;29;20094;-67
2022/03/08 12:40:07;;;;;;;6.55;4.45;;;;;;;;;;4870843;29;20127;-69
2022/03/08 12:42:40;;;;;;;4.90;3.90;;;;;;;;;;4884064;29;20148;-67
2022/03/08 12:45:19;;;;;;;6.13;4.27;;;;;;;;;;4881174;29;20053;-68
2022/03/08 12:47:45;;;;;;;4.65;4.07;;;;;;;;;;4884343;29;20060;-68
2022/03/08 12:50:14;;;;;;;5.00;3.55;;;;;;;;;;4885332;29;20476;-67
2022/03/08 12:52:46;;;;;;;5.72;3.95;;;;;;;;;;4889046;29;20111;-68
2022/03/08 12:55:16;;;;;;;5.13;3.35;;;;;;;;;;4885776;29;20144;-68
2022/03/08 12:57:51;;;;;;;4.45;3.90;;;;;;;;;;4888384;29;20049;-68
2022/03/08 13:00:40;;;;;;;6.85;4.45;;;;;;;;;;4884627;29;20068;-67
2022/03/08 13:03:11;;;;;;;4.68;3.65;;;;;;;;;;4883879;29;20052;-69
2022/03/08 13:05:43;;;;;;;6.72;3.85;;;;;;;;;;4886981;29;20087;-68
2022/03/08 13:08:13;;;;;;;4.13;3.50;;;;;;;;;;4889339;29;20135;-68
2022/03/08 13:10:50;;;;;;;5.40;3.85;;;;;;;;;;4889061;29;20055;-68
2022/03/08 13:13:38;;;;;;;3.97;3.55;;;;;;;;;;4887305;29;20513;-68
2022/03/08 13:16:05;;;;;;;6.15;4.40;;;;;;;;;;4890192;29;20040;-69
2022/03/08 13:18:37;;;;;;;6.35;3.92;;;;;;;;;;4890770;29;20057;-67
2022/03/08 13:21:05;;;;;;;5.88;4.03;;;;;;;;;;4885927;29;20048;-67
2022/03/08 13:23:38;;;;;;;3.80;3.40;;;;;;;;;;4887888;29;20088;-67
2022/03/08 13:26:06;;;;;;;4.13;3.50;;;;;;;;;;4882564;29;20547;-67
2022/03/08 13:28:37;;;;;;;3.55;3.25;;;;;;;;;;4884108;29;20052;-66
2022/03/08 13:31:06;;;;;;;3.88;3.47;;;;;;;;;;4883152;29;20053;-68
2022/03/08 13:33:43;;;;;;;5.47;4.05;;;;;;;;;;4879933;29;20056;-67
2022/03/08 13:36:11;;;;;;;4.30;3.90;;;;;;;;;;4883945;29;20041;-67
2022/03/08 13:38:39;;;;;;;6.13;4.55;;;;;;;;;;4883214;29;20122;-67
2022/03/08 13:41:14;;;;;;;5.63;3.70;;;;;;;;;;4890769;29;20045;-67
2022/03/08 13:43:43;;;;;;;4.53;3.58;;;;;;;;;;4884405;29;20507;-66
2022/03/08 13:46:14;;;;;;;5.20;4.00;;;;;;;;;;4901209;29;20568;-67
2022/03/08 13:48:47;;;;;;;5.65;3.72;;;;;;;;;;4886099;29;20053;-67
2022/03/08 13:51:14;;;;;;;4.45;3.97;;;;;;;;;;4890681;29;20104;-67
2022/03/08 13:53:41;;;;;;;3.97;3.58;;;;;;;;;;4888675;29;20461;-67
2022/03/08 13:56:08;;;;;;;5.45;3.65;;;;;;;;;;4891872;29;20060;-67
2022/03/08 13:58:43;;;;;;;3.83;2.97;;;;;;;;;;4885744;29;20477;-67
2022/03/08 14:01:13;;;;;;;4.28;3.70;;;;;;;;;;4887395;29;20055;-67
2022/03/08 14:03:43;;;;;;;3.33;3.03;;;;;;;;;;4879421;29;20056;-67
2022/03/08 14:06:15;;;;;;;4.95;3.10;;;;;;;;;;4885124;29;20158;-67
2022/03/08 14:08:44;;;;;;;4.70;3.40;;;;;;;;;;4886127;29;20105;-67
2022/03/08 14:11:18;;;;;;;4.47;3.33;;;;;;;;;;4890693;29;20108;-67
2022/03/08 14:13:53;;;;;;;3.80;3.35;;;;;;;;;;4888784;29;20044;-68
2022/03/08 14:16:21;;;;;;;3.80;3.40;;;;;;;;;;4885338;29;20053;-71
2022/03/08 14:18:56;;;;;;;3.78;3.40;;;;;;;;;;4900010;29;20087;-66
2022/03/08 14:21:33;;;;;;;6.03;3.90;;;;;;;;;;4881467;29;20049;-69
2022/03/08 14:24:15;;;;;;;5.63;3.70;;;;;;;;;;4887673;29;20428;-68
2022/03/08 14:27:09;;;;;;;4.15;3.75;;;;;;;;;;4891318;29;20049;-67
2022/03/08 14:29:55;;;;;;;3.92;3.53;;;;;;;;;;4887205;29;20063;-69
2022/03/08 14:32:22;;;;;;;4.35;3.67;;;;;;;;;;4889273;29;20059;-68
2022/03/08 14:34:48;;;;;;;5.93;4.43;;;;;;;;;;4884433;29;20454;-69
2022/03/08 14:37:16;;;;;;;5.30;4.55;;;;;;;;;;4886018;29;20041;-67
2022/03/08 14:39:46;;;;;;;6.10;4.50;;;;;;;;;;4891052;29;20512;-68